Aérodrome :
LOGIN :

S'inscrire | Disclaimer

   EN    FR    IT 

 










Légende :    VFR   VFR Marginal   IFR   IFR Intensif   IFR Très Intensif
Visi : 
Plafond : 
>= 8 km
>= 3000ft
5 à 8 km
1000 à 3000 ft
1500m à 5 km
500 à 1000 ft
800 à 1500m
200 à 500 ft
< 800m
< 200 ft
Symboles :   Orages  Brouillard  Fortes neiges  Fortes précipitations  Vent > 20 kt
SIGMETs :   Divers  Orages  Givrage  Turbulence  Onde Orograph.  Cendres Volcan.






- Altitude de l'aérodrome : 37 ft


EHVL - Vlieland Heliport

DERNIER METAR :
  • 270213Z AUTO 21024KT 7000 BR BKN007 OVC008 08/07 Q1004 GRN

METARs EXPIRÉS :
  • 270155Z AUTO 20024KT 7000 BR SCT007 BKN008 OVC009 08/07 Q1004 GRN
  • 270125Z AUTO 20024KT 7000 BR FEW002 BKN008 OVC010 08/07 Q1004 GRN
  • 270116Z AUTO 20022KT 6000 BR FEW006 BKN007 BKN009 07/07 Q1004 GRN
  • 270108Z AUTO 19018KT 3000 -RA FEW005 BKN006 BKN008 FEW015CB 07/06 Q1005 YLO
  • 270055Z AUTO 18018KT 3000 -RA FEW006 BKN007 OVC008 07/06 Q1005 RERA REDZ YLO
  • 270042Z AUTO 18018KT 3000 +DZRA SCT007 BKN008 FEW015CB 06/06 Q1005 YLO
  • 270025Z AUTO 18017KT 3400 -RADZ FEW001 BKN009 FEW015CB 06/06 Q1005 YLO
  • 262355Z AUTO 18017KT 3400 RA FEW005 BKN010 BKN012 FEW015CB 06/06 Q1006 RERA REDZ YLO
  • 262339Z AUTO 18017KT 4700 +DZRA FEW002 BKN009 OVC011 06/06 Q1006 GRN
  • 262325Z AUTO 18016KT 5000 DZ FEW002 BKN010 OVC014 06/06 Q1006 GRN

Prévision TAF périmée.



MET'MAP, la Météo Aéronautique d'un coup d'oeil ! - Copyright ORBIFLY Décembre 2007 - Disclaimer

ORBIFLY MET'MAP TEAM :

Programmation & Développement : Alexandra Zaïnal
Sur une idée originale de : Baudouin d'Aumeries
Assistance à la programmation : Marc-Olivier Méhu
Soutien technique & logistique : Manuel Goepfert

Contact : metmap@orbifly.com




SOURCES & CREDITS :

   NOAA